sensor_id;sensor_type;location;lat;lon;timestamp;pressure;altitude;pressure_sealevel;temperature;humidity
21588;BME280;10956;48.878;13.316;2022-07-01T00:01:43;93927.16;;;19.96;100.00
21588;BME280;10956;48.878;13.316;2022-07-01T00:04:10;93928.81;;;19.89;100.00
21588;BME280;10956;48.878;13.316;2022-07-01T00:06:36;93923.91;;;19.91;100.00
21588;BME280;10956;48.878;13.316;2022-07-01T00:09:02;93926.25;;;19.92;100.00
21588;BME280;10956;48.878;13.316;2022-07-01T00:11:30;93921.69;;;19.93;100.00
21588;BME280;10956;48.878;13.316;2022-07-01T00:13:55;93924.81;;;19.95;100.00
21588;BME280;10956;48.878;13.316;2022-07-01T00:16:21;93920.56;;;19.94;100.00
21588;BME280;10956;48.878;13.316;2022-07-01T00:18:46;93919.47;;;19.95;100.00
21588;BME280;10956;48.878;13.316;2022-07-01T00:21:12;93930.00;;;19.79;100.00
21588;BME280;10956;48.878;13.316;2022-07-01T00:23:37;93925.75;;;19.78;100.00
21588;BME280;10956;48.878;13.316;2022-07-01T00:26:03;93929.56;;;19.77;100.00
21588;BME280;10956;48.878;13.316;2022-07-01T00:28:28;93940.13;;;19.74;100.00
21588;BME280;10956;48.878;13.316;2022-07-01T00:30:54;93934.66;;;19.70;100.00
21588;BME280;10956;48.878;13.316;2022-07-01T00:33:19;93938.69;;;19.76;100.00
21588;BME280;10956;48.878;13.316;2022-07-01T00:35:44;93937.66;;;19.68;100.00
21588;BME280;10956;48.878;13.316;2022-07-01T00:38:10;93929.44;;;19.74;100.00
21588;BME280;10956;48.878;13.316;2022-07-01T00:40:36;93927.66;;;19.78;100.00
21588;BME280;10956;48.878;13.316;2022-07-01T00:43:02;93924.31;;;19.81;100.00
21588;BME280;10956;48.878;13.316;2022-07-01T00:45:28;93926.31;;;19.72;100.00
21588;BME280;10956;48.878;13.316;2022-07-01T00:47:53;93940.84;;;19.62;100.00
21588;BME280;10956;48.878;13.316;2022-07-01T00:50:18;93940.94;;;19.53;100.00
21588;BME280;10956;48.878;13.316;2022-07-01T00:52:44;93939.50;;;19.56;100.00
21588;BME280;10956;48.878;13.316;2022-07-01T00:55:12;93934.06;;;19.64;100.00
21588;BME280;10956;48.878;13.316;2022-07-01T00:57:40;93938.25;;;19.53;100.00
21588;BME280;10956;48.878;13.316;2022-07-01T01:00:09;93933.38;;;19.55;100.00
21588;BME280;10956;48.878;13.316;2022-07-01T01:02:35;93929.31;;;19.49;100.00
21588;BME280;10956;48.878;13.316;2022-07-01T01:05:03;93917.50;;;19.50;100.00
21588;BME280;10956;48.878;13.316;2022-07-01T01:07:29;93910.88;;;19.35;100.00
21588;BME280;10956;48.878;13.316;2022-07-01T01:09:56;93914.97;;;19.33;100.00
21588;BME280;10956;48.878;13.316;2022-07-01T01:12:22;93921.75;;;19.30;100.00
21588;BME280;10956;48.878;13.316;2022-07-01T01:14:50;93904.56;;;19.19;100.00
21588;BME280;10956;48.878;13.316;2022-07-01T01:17:16;93906.19;;;19.12;100.00
21588;BME280;10956;48.878;13.316;2022-07-01T01:19:43;93897.66;;;19.18;100.00
21588;BME280;10956;48.878;13.316;2022-07-01T01:22:10;93902.47;;;19.25;100.00
21588;BME280;10956;48.878;13.316;2022-07-01T01:24:36;93901.03;;;19.27;100.00
21588;BME280;10956;48.878;13.316;2022-07-01T01:27:05;93900.06;;;19.32;100.00
21588;BME280;10956;48.878;13.316;2022-07-01T01:29:31;93893.59;;;19.33;100.00
21588;BME280;10956;48.878;13.316;2022-07-01T01:31:57;93892.75;;;19.41;100.00
21588;BME280;10956;48.878;13.316;2022-07-01T01:34:23;93890.78;;;19.50;100.00
21588;BME280;10956;48.878;13.316;2022-07-01T01:36:48;93889.53;;;19.68;100.00
21588;BME280;10956;48.878;13.316;2022-07-01T01:39:13;93902.31;;;19.63;100.00
21588;BME280;10956;48.878;13.316;2022-07-01T01:41:43;93912.69;;;19.64;100.00
21588;BME280;10956;48.878;13.316;2022-07-01T01:44:08;93910.00;;;19.64;100.00
21588;BME280;10956;48.878;13.316;2022-07-01T01:46:34;93921.34;;;19.61;100.00
21588;BME280;10956;48.878;13.316;2022-07-01T01:49:02;93927.88;;;19.73;100.00
21588;BME280;10956;48.878;13.316;2022-07-01T01:51:28;93948.78;;;19.71;100.00
21588;BME280;10956;48.878;13.316;2022-07-01T01:53:54;93952.63;;;19.82;100.00
21588;BME280;10956;48.878;13.316;2022-07-01T01:56:21;93950.16;;;19.77;100.00
21588;BME280;10956;48.878;13.316;2022-07-01T01:58:46;93955.78;;;19.96;100.00
21588;BME280;10956;48.878;13.316;2022-07-01T02:01:12;93952.47;;;19.99;100.00
21588;BME280;10956;48.878;13.316;2022-07-01T02:03:40;93951.44;;;19.91;100.00
21588;BME280;10956;48.878;13.316;2022-07-01T02:06:06;93964.22;;;19.86;100.00
21588;BME280;10956;48.878;13.316;2022-07-01T02:08:32;93963.81;;;19.96;100.00
21588;BME280;10956;48.878;13.316;2022-07-01T02:10:58;93968.25;;;19.92;100.00
21588;BME280;10956;48.878;13.316;2022-07-01T02:13:23;93950.28;;;19.80;100.00
21588;BME280;10956;48.878;13.316;2022-07-01T02:15:49;93938.38;;;19.90;100.00
21588;BME280;10956;48.878;13.316;2022-07-01T02:18:15;93936.03;;;19.88;100.00
21588;BME280;10956;48.878;13.316;2022-07-01T02:20:41;93937.50;;;19.86;100.00
21588;BME280;10956;48.878;13.316;2022-07-01T02:23:07;93940.81;;;19.83;100.00
21588;BME280;10956;48.878;13.316;2022-07-01T02:25:33;93932.56;;;19.76;100.00
21588;BME280;10956;48.878;13.316;2022-07-01T02:27:58;93920.91;;;19.59;100.00
21588;BME280;10956;48.878;13.316;2022-07-01T02:30:25;93915.22;;;19.40;100.00
21588;BME280;10956;48.878;13.316;2022-07-01T02:32:50;93921.22;;;19.37;100.00
21588;BME280;10956;48.878;13.316;2022-07-01T02:35:16;93929.03;;;19.42;100.00
21588;BME280;10956;48.878;13.316;2022-07-01T02:37:41;93924.22;;;19.56;100.00
21588;BME280;10956;48.878;13.316;2022-07-01T02:40:07;93914.44;;;19.60;100.00
21588;BME280;10956;48.878;13.316;2022-07-01T02:42:34;93911.31;;;19.58;100.00
21588;BME280;10956;48.878;13.316;2022-07-01T02:45:04;93919.81;;;19.60;100.00
21588;BME280;10956;48.878;13.316;2022-07-01T02:47:34;93922.84;;;19.50;100.00
21588;BME280;10956;48.878;13.316;2022-07-01T02:50:00;93928.84;;;19.47;100.00
21588;BME280;10956;48.878;13.316;2022-07-01T02:52:26;93928.47;;;19.57;100.00
21588;BME280;10956;48.878;13.316;2022-07-01T02:54:52;93929.81;;;19.43;100.00
21588;BME280;10956;48.878;13.316;2022-07-01T02:57:18;93936.09;;;19.26;100.00
21588;BME280;10956;48.878;13.316;2022-07-01T02:59:43;93940.13;;;19.32;100.00
21588;BME280;10956;48.878;13.316;2022-07-01T03:02:09;93951.19;;;19.22;100.00
21588;BME280;10956;48.878;13.316;2022-07-01T03:04:34;93952.50;;;19.16;100.00
21588;BME280;10956;48.878;13.316;2022-07-01T03:07:00;93961.34;;;19.08;100.00
21588;BME280;10956;48.878;13.316;2022-07-01T03:09:25;93964.47;;;19.10;100.00
21588;BME280;10956;48.878;13.316;2022-07-01T03:11:51;93962.06;;;18.96;100.00
21588;BME280;10956;48.878;13.316;2022-07-01T03:14:17;93966.88;;;19.02;100.00
21588;BME280;10956;48.878;13.316;2022-07-01T03:16:42;93964.22;;;19.02;100.00
21588;BME280;10956;48.878;13.316;2022-07-01T03:19:08;93976.72;;;19.11;100.00
21588;BME280;10956;48.878;13.316;2022-07-01T03:21:34;93975.88;;;19.19;100.00
21588;BME280;10956;48.878;13.316;2022-07-01T03:24:00;93978.81;;;19.26;100.00
21588;BME280;10956;48.878;13.316;2022-07-01T03:26:25;93986.25;;;19.41;100.00
21588;BME280;10956;48.878;13.316;2022-07-01T03:28:51;93986.53;;;19.48;100.00
21588;BME280;10956;48.878;13.316;2022-07-01T03:31:16;94000.63;;;19.57;100.00
21588;BME280;10956;48.878;13.316;2022-07-01T03:33:42;94000.44;;;19.62;100.00
21588;BME280;10956;48.878;13.316;2022-07-01T03:36:07;94002.47;;;19.65;100.00
21588;BME280;10956;48.878;13.316;2022-07-01T03:38:32;94008.84;;;19.73;100.00
21588;BME280;10956;48.878;13.316;2022-07-01T03:40:58;94012.81;;;19.67;100.00
21588;BME280;10956;48.878;13.316;2022-07-01T03:43:23;94023.84;;;19.86;100.00
21588;BME280;10956;48.878;13.316;2022-07-01T03:45:49;94026.72;;;19.81;100.00
21588;BME280;10956;48.878;13.316;2022-07-01T03:48:14;94017.56;;;19.82;100.00
21588;BME280;10956;48.878;13.316;2022-07-01T03:50:41;94034.19;;;19.88;100.00
21588;BME280;10956;48.878;13.316;2022-07-01T03:53:06;94027.22;;;19.95;100.00
21588;BME280;10956;48.878;13.316;2022-07-01T03:55:50;94028.25;;;20.03;100.00
21588;BME280;10956;48.878;13.316;2022-07-01T03:58:16;94036.53;;;20.10;100.00
21588;BME280;10956;48.878;13.316;2022-07-01T04:00:41;94039.97;;;20.11;100.00
21588;BME280;10956;48.878;13.316;2022-07-01T04:03:07;94052.56;;;20.10;100.00
21588;BME280;10956;48.878;13.316;2022-07-01T04:05:33;94060.59;;;20.10;100.00
21588;BME280;10956;48.878;13.316;2022-07-01T04:08:00;94059.16;;;20.13;100.00
21588;BME280;10956;48.878;13.316;2022-07-01T04:10:26;94056.03;;;20.11;100.00
21588;BME280;10956;48.878;13.316;2022-07-01T04:12:51;94068.44;;;20.15;100.00
21588;BME280;10956;48.878;13.316;2022-07-01T04:15:17;94062.00;;;20.28;100.00
21588;BME280;10956;48.878;13.316;2022-07-01T04:17:43;94060.69;;;20.35;100.00
21588;BME280;10956;48.878;13.316;2022-07-01T04:20:08;94067.94;;;20.34;100.00
21588;BME280;10956;48.878;13.316;2022-07-01T04:22:34;94070.94;;;20.32;100.00
21588;BME280;10956;48.878;13.316;2022-07-01T04:25:02;94070.50;;;20.30;100.00
21588;BME280;10956;48.878;13.316;2022-07-01T04:27:29;94069.38;;;20.31;100.00
21588;BME280;10956;48.878;13.316;2022-07-01T04:29:55;94083.41;;;20.28;100.00
21588;BME280;10956;48.878;13.316;2022-07-01T04:32:20;94082.38;;;20.42;100.00
21588;BME280;10956;48.878;13.316;2022-07-01T04:34:46;94083.94;;;20.43;100.00
21588;BME280;10956;48.878;13.316;2022-07-01T04:37:11;94084.84;;;20.47;100.00
21588;BME280;10956;48.878;13.316;2022-07-01T04:39:37;94086.66;;;20.55;100.00
21588;BME280;10956;48.878;13.316;2022-07-01T04:42:03;94092.00;;;20.55;100.00
21588;BME280;10956;48.878;13.316;2022-07-01T04:44:30;94088.22;;;20.56;100.00
21588;BME280;10956;48.878;13.316;2022-07-01T04:46:57;94090.19;;;20.47;100.00
21588;BME280;10956;48.878;13.316;2022-07-01T04:49:23;94105.59;;;20.50;100.00
21588;BME280;10956;48.878;13.316;2022-07-01T04:51:48;94104.69;;;20.46;100.00
21588;BME280;10956;48.878;13.316;2022-07-01T04:54:14;94120.50;;;20.39;100.00
21588;BME280;10956;48.878;13.316;2022-07-01T04:56:40;94123.88;;;20.27;100.00
21588;BME280;10956;48.878;13.316;2022-07-01T04:59:05;94112.59;;;20.21;100.00
21588;BME280;10956;48.878;13.316;2022-07-01T05:01:31;94114.69;;;20.16;100.00
21588;BME280;10956;48.878;13.316;2022-07-01T05:03:57;94117.44;;;20.07;100.00
21588;BME280;10956;48.878;13.316;2022-07-01T05:06:23;94110.97;;;20.08;100.00
21588;BME280;10956;48.878;13.316;2022-07-01T05:08:48;94116.72;;;19.98;100.00
21588;BME280;10956;48.878;13.316;2022-07-01T05:11:14;94120.94;;;19.99;100.00
21588;BME280;10956;48.878;13.316;2022-07-01T05:13:39;94124.53;;;20.03;100.00
21588;BME280;10956;48.878;13.316;2022-07-01T05:16:05;94129.44;;;20.01;100.00
21588;BME280;10956;48.878;13.316;2022-07-01T05:18:31;94133.34;;;20.04;100.00
21588;BME280;10956;48.878;13.316;2022-07-01T05:21:16;94135.63;;;19.93;100.00
21588;BME280;10956;48.878;13.316;2022-07-01T05:24:00;94140.91;;;19.81;100.00
21588;BME280;10956;48.878;13.316;2022-07-01T05:26:26;94139.78;;;19.82;100.00
21588;BME280;10956;48.878;13.316;2022-07-01T05:28:52;94143.25;;;19.82;100.00
21588;BME280;10956;48.878;13.316;2022-07-01T05:31:18;94138.09;;;19.77;100.00
21588;BME280;10956;48.878;13.316;2022-07-01T05:33:44;94151.25;;;19.82;100.00
21588;BME280;10956;48.878;13.316;2022-07-01T05:36:09;94145.00;;;19.78;100.00
21588;BME280;10956;48.878;13.316;2022-07-01T05:38:36;94150.47;;;19.82;100.00
21588;BME280;10956;48.878;13.316;2022-07-01T05:41:02;94141.69;;;19.81;100.00
21588;BME280;10956;48.878;13.316;2022-07-01T05:43:28;94150.47;;;19.82;100.00
21588;BME280;10956;48.878;13.316;2022-07-01T05:45:54;94152.31;;;19.90;100.00
21588;BME280;10956;48.878;13.316;2022-07-01T05:48:20;94154.94;;;19.98;100.00
21588;BME280;10956;48.878;13.316;2022-07-01T05:50:45;94166.16;;;19.92;100.00
21588;BME280;10956;48.878;13.316;2022-07-01T05:53:12;94163.00;;;19.90;100.00
21588;BME280;10956;48.878;13.316;2022-07-01T05:55:37;94166.16;;;19.92;100.00
21588;BME280;10956;48.878;13.316;2022-07-01T05:58:03;94172.34;;;19.84;100.00
21588;BME280;10956;48.878;13.316;2022-07-01T06:00:28;94172.00;;;19.85;100.00
21588;BME280;10956;48.878;13.316;2022-07-01T06:02:54;94171.81;;;19.90;100.00
21588;BME280;10956;48.878;13.316;2022-07-01T06:05:19;94170.00;;;20.03;100.00
21588;BME280;10956;48.878;13.316;2022-07-01T06:07:45;94159.91;;;20.09;100.00
21588;BME280;10956;48.878;13.316;2022-07-01T06:10:11;94165.72;;;20.11;100.00
21588;BME280;10956;48.878;13.316;2022-07-01T06:12:40;94162.78;;;20.24;100.00
21588;BME280;10956;48.878;13.316;2022-07-01T06:15:12;94163.69;;;20.49;99.20
21588;BME280;10956;48.878;13.316;2022-07-01T06:17:39;94160.94;;;20.58;98.27
21588;BME280;10956;48.878;13.316;2022-07-01T06:20:06;94158.00;;;20.72;97.31
21588;BME280;10956;48.878;13.316;2022-07-01T06:22:32;94148.63;;;20.78;97.55
21588;BME280;10956;48.878;13.316;2022-07-01T06:24:58;94151.09;;;20.83;97.32
21588;BME280;10956;48.878;13.316;2022-07-01T06:27:24;94154.16;;;21.06;95.99
21588;BME280;10956;48.878;13.316;2022-07-01T06:29:50;94150.63;;;21.14;95.25
21588;BME280;10956;48.878;13.316;2022-07-01T06:32:15;94150.72;;;21.17;95.02
21588;BME280;10956;48.878;13.316;2022-07-01T06:34:41;94146.34;;;21.01;94.21
21588;BME280;10956;48.878;13.316;2022-07-01T06:37:06;94144.44;;;20.89;95.22
21588;BME280;10956;48.878;13.316;2022-07-01T06:39:32;94147.00;;;20.98;95.12
21588;BME280;10956;48.878;13.316;2022-07-01T06:41:57;94148.47;;;20.95;95.25
21588;BME280;10956;48.878;13.316;2022-07-01T06:44:23;94144.66;;;20.96;95.29
21588;BME280;10956;48.878;13.316;2022-07-01T06:46:48;94145.88;;;20.86;95.57
21588;BME280;10956;48.878;13.316;2022-07-01T06:49:14;94139.38;;;20.75;94.67
21588;BME280;10956;48.878;13.316;2022-07-01T06:51:39;94147.22;;;20.92;94.75
21588;BME280;10956;48.878;13.316;2022-07-01T06:54:05;94143.69;;;21.13;93.12
21588;BME280;10956;48.878;13.316;2022-07-01T06:56:31;94147.88;;;21.47;93.21
21588;BME280;10956;48.878;13.316;2022-07-01T06:58:56;94148.88;;;21.79;90.60
21588;BME280;10956;48.878;13.316;2022-07-01T07:01:22;94151.44;;;22.12;89.19
21588;BME280;10956;48.878;13.316;2022-07-01T07:03:48;94153.13;;;22.44;87.49
21588;BME280;10956;48.878;13.316;2022-07-01T07:06:14;94151.28;;;22.88;86.48
21588;BME280;10956;48.878;13.316;2022-07-01T07:08:39;94158.19;;;23.17;84.61
21588;BME280;10956;48.878;13.316;2022-07-01T07:11:05;94162.09;;;23.20;84.65
21588;BME280;10956;48.878;13.316;2022-07-01T07:13:32;94167.72;;;23.15;85.16
21588;BME280;10956;48.878;13.316;2022-07-01T07:15:57;94173.16;;;23.03;85.27
21588;BME280;10956;48.878;13.316;2022-07-01T07:18:23;94173.03;;;22.83;85.97
21588;BME280;10956;48.878;13.316;2022-07-01T07:20:48;94178.66;;;22.66;86.68
21588;BME280;10956;48.878;13.316;2022-07-01T07:23:14;94173.97;;;22.63;86.14
21588;BME280;10956;48.878;13.316;2022-07-01T07:25:39;94177.34;;;22.60;86.20
21588;BME280;10956;48.878;13.316;2022-07-01T07:28:05;94180.31;;;22.83;85.38
21588;BME280;10956;48.878;13.316;2022-07-01T07:30:30;94188.16;;;23.04;85.05
21588;BME280;10956;48.878;13.316;2022-07-01T07:32:56;94186.28;;;23.36;84.22
21588;BME280;10956;48.878;13.316;2022-07-01T07:35:21;94185.75;;;23.14;84.03
21588;BME280;10956;48.878;13.316;2022-07-01T07:37:47;94181.97;;;22.87;85.70
21588;BME280;10956;48.878;13.316;2022-07-01T07:40:13;94188.50;;;22.74;85.50
21588;BME280;10956;48.878;13.316;2022-07-01T07:42:44;94193.09;;;23.02;85.34
21588;BME280;10956;48.878;13.316;2022-07-01T07:45:10;94181.59;;;23.17;84.50
21588;BME280;10956;48.878;13.316;2022-07-01T07:47:37;94184.09;;;23.10;83.98
21588;BME280;10956;48.878;13.316;2022-07-01T07:50:03;94194.88;;;22.82;85.35
21588;BME280;10956;48.878;13.316;2022-07-01T07:52:29;94204.69;;;22.50;86.59
21588;BME280;10956;48.878;13.316;2022-07-01T07:54:54;94200.03;;;22.35;87.11
21588;BME280;10956;48.878;13.316;2022-07-01T07:57:20;94197.00;;;22.36;86.95
21588;BME280;10956;48.878;13.316;2022-07-01T07:59:45;94196.91;;;22.33;86.86
21588;BME280;10956;48.878;13.316;2022-07-01T08:02:11;94203.00;;;22.45;86.49
21588;BME280;10956;48.878;13.316;2022-07-01T08:04:37;94202.03;;;22.38;87.26
21588;BME280;10956;48.878;13.316;2022-07-01T08:07:02;94210.56;;;22.15;87.45
21588;BME280;10956;48.878;13.316;2022-07-01T08:09:28;94210.91;;;22.02;87.98
21588;BME280;10956;48.878;13.316;2022-07-01T08:11:54;94212.91;;;21.92;88.49
21588;BME280;10956;48.878;13.316;2022-07-01T08:14:19;94221.53;;;21.74;89.55
21588;BME280;10956;48.878;13.316;2022-07-01T08:16:45;94224.19;;;21.62;90.59
21588;BME280;10956;48.878;13.316;2022-07-01T08:19:10;94228.44;;;21.50;90.91
21588;BME280;10956;48.878;13.316;2022-07-01T08:21:36;94220.06;;;21.19;91.53
21588;BME280;10956;48.878;13.316;2022-07-01T08:24:01;94234.13;;;21.16;91.31
21588;BME280;10956;48.878;13.316;2022-07-01T08:26:27;94229.84;;;21.03;91.11
21588;BME280;10956;48.878;13.316;2022-07-01T08:28:52;94225.94;;;21.00;90.82
21588;BME280;10956;48.878;13.316;2022-07-01T08:31:18;94228.59;;;21.00;89.93
21588;BME280;10956;48.878;13.316;2022-07-01T08:33:43;94234.31;;;20.99;90.66
21588;BME280;10956;48.878;13.316;2022-07-01T08:36:10;94237.84;;;20.90;91.39
21588;BME280;10956;48.878;13.316;2022-07-01T08:38:36;94236.28;;;20.89;92.25
21588;BME280;10956;48.878;13.316;2022-07-01T08:41:02;94226.72;;;21.01;92.25
21588;BME280;10956;48.878;13.316;2022-07-01T08:43:30;94229.84;;;21.03;92.48
21588;BME280;10956;48.878;13.316;2022-07-01T08:45:58;94229.44;;;21.13;92.44
21588;BME280;10956;48.878;13.316;2022-07-01T08:48:23;94220.41;;;21.17;91.26
21588;BME280;10956;48.878;13.316;2022-07-01T08:50:49;94227.72;;;21.29;90.09
21588;BME280;10956;48.878;13.316;2022-07-01T08:53:14;94230.66;;;21.48;89.78
21588;BME280;10956;48.878;13.316;2022-07-01T08:55:40;94238.94;;;21.68;89.14
21588;BME280;10956;48.878;13.316;2022-07-01T08:58:26;94234.94;;;21.86;88.94
21588;BME280;10956;48.878;13.316;2022-07-01T09:00:52;94227.34;;;21.88;88.65
21588;BME280;10956;48.878;13.316;2022-07-01T09:03:21;94232.50;;;22.05;88.26
21588;BME280;10956;48.878;13.316;2022-07-01T09:05:50;94233.16;;;22.27;87.42
21588;BME280;10956;48.878;13.316;2022-07-01T09:08:16;94237.78;;;22.54;86.21
21588;BME280;10956;48.878;13.316;2022-07-01T09:10:42;94235.19;;;22.70;85.58
21588;BME280;10956;48.878;13.316;2022-07-01T09:13:09;94234.59;;;22.76;85.29
21588;BME280;10956;48.878;13.316;2022-07-01T09:15:38;94237.06;;;22.81;84.79
21588;BME280;10956;48.878;13.316;2022-07-01T09:18:14;94235.75;;;22.63;84.79
21588;BME280;10956;48.878;13.316;2022-07-01T09:20:46;94230.22;;;22.44;85.89
21588;BME280;10956;48.878;13.316;2022-07-01T09:23:15;94236.50;;;22.36;87.01
21588;BME280;10956;48.878;13.316;2022-07-01T09:25:50;94237.41;;;22.28;86.14
21588;BME280;10956;48.878;13.316;2022-07-01T09:28:21;94242.31;;;22.26;84.96
21588;BME280;10956;48.878;13.316;2022-07-01T09:30:55;94251.22;;;22.54;85.12
21588;BME280;10956;48.878;13.316;2022-07-01T09:35:49;94238.19;;;22.68;83.83
21588;BME280;10956;48.878;13.316;2022-07-01T09:38:17;94232.81;;;22.80;84.13
21588;BME280;10956;48.878;13.316;2022-07-01T09:43:25;94244.41;;;22.97;82.20
21588;BME280;10956;48.878;13.316;2022-07-01T09:45:57;94236.88;;;23.02;81.14
21588;BME280;10956;48.878;13.316;2022-07-01T09:48:43;94239.50;;;23.14;78.42
21588;BME280;10956;48.878;13.316;2022-07-01T09:51:11;94243.66;;;23.12;78.85
21588;BME280;10956;48.878;13.316;2022-07-01T09:53:37;94237.53;;;23.27;78.45
21588;BME280;10956;48.878;13.316;2022-07-01T09:56:02;94237.66;;;23.46;77.92
21588;BME280;10956;48.878;13.316;2022-07-01T09:58:28;94235.00;;;23.78;76.64
21588;BME280;10956;48.878;13.316;2022-07-01T10:00:54;94242.13;;;23.86;74.55
21588;BME280;10956;48.878;13.316;2022-07-01T10:03:21;94235.53;;;23.68;76.20
21588;BME280;10956;48.878;13.316;2022-07-01T10:14:07;94237.94;;;24.55;74.87
21588;BME280;10956;48.878;13.316;2022-07-01T10:16:35;94249.59;;;24.78;72.90
21588;BME280;10956;48.878;13.316;2022-07-01T10:21:45;94246.69;;;24.17;73.65
21588;BME280;10956;48.878;13.316;2022-07-01T10:24:12;94241.50;;;23.93;75.20
21588;BME280;10956;48.878;13.316;2022-07-01T10:26:39;94249.84;;;23.88;76.24
21588;BME280;10956;48.878;13.316;2022-07-01T10:29:04;94241.94;;;23.79;76.98
21588;BME280;10956;48.878;13.316;2022-07-01T10:31:37;94241.88;;;23.75;78.00
21588;BME280;10956;48.878;13.316;2022-07-01T10:34:04;94244.91;;;23.74;77.96
21588;BME280;10956;48.878;13.316;2022-07-01T10:36:35;94247.34;;;23.79;77.20
21588;BME280;10956;48.878;13.316;2022-07-01T10:41:31;94243.69;;;23.87;74.88
21588;BME280;10956;48.878;13.316;2022-07-01T10:43:57;94253.75;;;23.90;75.94
21588;BME280;10956;48.878;13.316;2022-07-01T10:47:02;94240.47;;;23.97;76.45
21588;BME280;10956;48.878;13.316;2022-07-01T10:52:07;94255.31;;;23.60;77.99
21588;BME280;10956;48.878;13.316;2022-07-01T10:59:51;94246.84;;;23.02;81.72
21588;BME280;10956;48.878;13.316;2022-07-01T11:04:45;94253.63;;;22.71;84.82
21588;BME280;10956;48.878;13.316;2022-07-01T11:07:12;94257.25;;;22.51;86.03
21588;BME280;10956;48.878;13.316;2022-07-01T11:09:37;94259.06;;;22.47;86.64
21588;BME280;10956;48.878;13.316;2022-07-01T11:12:04;94258.38;;;22.50;86.99
21588;BME280;10956;48.878;13.316;2022-07-01T11:14:34;94254.69;;;22.54;86.34
21588;BME280;10956;48.878;13.316;2022-07-01T11:17:01;94259.03;;;22.59;85.33
21588;BME280;10956;48.878;13.316;2022-07-01T11:19:26;94263.72;;;22.62;84.04
21588;BME280;10956;48.878;13.316;2022-07-01T11:21:52;94267.75;;;22.68;83.34
21588;BME280;10956;48.878;13.316;2022-07-01T11:24:19;94275.38;;;22.66;83.55
21588;BME280;10956;48.878;13.316;2022-07-01T11:26:45;94270.91;;;22.58;81.80
21588;BME280;10956;48.878;13.316;2022-07-01T11:29:15;94274.03;;;22.60;81.82
21588;BME280;10956;48.878;13.316;2022-07-01T11:31:48;94274.34;;;22.71;81.37
21588;BME280;10956;48.878;13.316;2022-07-01T11:34:15;94275.13;;;22.71;80.49
21588;BME280;10956;48.878;13.316;2022-07-01T11:36:42;94277.41;;;22.57;80.97
21588;BME280;10956;48.878;13.316;2022-07-01T11:39:26;94276.31;;;22.34;81.54
21588;BME280;10956;48.878;13.316;2022-07-01T11:41:58;94289.06;;;22.24;81.62
21588;BME280;10956;48.878;13.316;2022-07-01T11:44:34;94285.72;;;22.15;82.58
21588;BME280;10956;48.878;13.316;2022-07-01T11:47:05;94287.84;;;22.10;83.73
21588;BME280;10956;48.878;13.316;2022-07-01T11:49:31;94294.19;;;21.93;84.64
21588;BME280;10956;48.878;13.316;2022-07-01T11:52:02;94288.56;;;21.74;85.82
21588;BME280;10956;48.878;13.316;2022-07-01T11:54:29;94292.09;;;21.53;87.97
21588;BME280;10956;48.878;13.316;2022-07-01T11:57:07;94295.16;;;21.31;88.17
21588;BME280;10956;48.878;13.316;2022-07-01T11:59:33;94293.41;;;21.14;88.70
21588;BME280;10956;48.878;13.316;2022-07-01T12:01:58;94296.13;;;20.93;89.22
21588;BME280;10956;48.878;13.316;2022-07-01T12:04:24;94309.44;;;20.81;90.26
21588;BME280;10956;48.878;13.316;2022-07-01T12:06:49;94297.28;;;20.63;91.12
21588;BME280;10956;48.878;13.316;2022-07-01T12:09:16;94287.63;;;20.71;91.28
21588;BME280;10956;48.878;13.316;2022-07-01T12:11:48;94294.16;;;20.61;91.13
21588;BME280;10956;48.878;13.316;2022-07-01T12:14:21;94295.91;;;20.57;90.51
21588;BME280;10956;48.878;13.316;2022-07-01T12:16:47;94282.31;;;20.41;91.99
21588;BME280;10956;48.878;13.316;2022-07-01T12:19:12;94287.34;;;20.43;93.45
21588;BME280;10956;48.878;13.316;2022-07-01T12:21:52;94290.63;;;20.69;92.28
21588;BME280;10956;48.878;13.316;2022-07-01T12:24:19;94293.44;;;20.93;91.10
21588;BME280;10956;48.878;13.316;2022-07-01T12:29:21;94299.25;;;20.75;90.38
21588;BME280;10956;48.878;13.316;2022-07-01T12:32:01;94306.81;;;20.73;90.93
21588;BME280;10956;48.878;13.316;2022-07-01T12:37:08;94304.75;;;20.78;88.87
21588;BME280;10956;48.878;13.316;2022-07-01T12:39:51;94309.19;;;20.74;89.62
21588;BME280;10956;48.878;13.316;2022-07-01T12:42:24;94321.84;;;20.65;89.25
21588;BME280;10956;48.878;13.316;2022-07-01T12:44:50;94315.16;;;20.50;90.11
21588;BME280;10956;48.878;13.316;2022-07-01T12:47:36;94324.50;;;20.36;90.93
21588;BME280;10956;48.878;13.316;2022-07-01T12:50:19;94324.56;;;20.27;90.60
21588;BME280;10956;48.878;13.316;2022-07-01T12:53:10;94317.25;;;20.07;91.08
21588;BME280;10956;48.878;13.316;2022-07-01T12:55:40;94325.91;;;20.12;90.63
21588;BME280;10956;48.878;13.316;2022-07-01T12:58:10;94335.53;;;20.05;91.18
21588;BME280;10956;48.878;13.316;2022-07-01T13:00:38;94338.69;;;19.98;91.91
21588;BME280;10956;48.878;13.316;2022-07-01T13:03:04;94339.56;;;19.73;92.52
21588;BME280;10956;48.878;13.316;2022-07-01T13:05:32;94342.13;;;19.60;91.26
21588;BME280;10956;48.878;13.316;2022-07-01T13:07:58;94345.75;;;19.47;93.12
21588;BME280;10956;48.878;13.316;2022-07-01T13:10:23;94341.03;;;19.61;91.99
21588;BME280;10956;48.878;13.316;2022-07-01T13:12:50;94336.78;;;19.60;90.85
21588;BME280;10956;48.878;13.316;2022-07-01T13:15:16;94342.59;;;19.45;91.86
21588;BME280;10956;48.878;13.316;2022-07-01T13:17:42;94345.75;;;19.39;91.72
21588;BME280;10956;48.878;13.316;2022-07-01T13:20:09;94349.69;;;19.24;92.42